Casstown, Ohio
Current Conditions -  °F | °C
As of 2:56 PM on Friday 31 Oct 2014 (Local Time) from KDAY Reporting Station
Light Rain Light Rain  
Wind Chill: 33°   Ceiling: 1600
Heat Index: 41°   Visibility: 6mi
Dew Point: 38°   Wind: 14mph
Humidity: 89%   Direction: 310°NW
Pressure: 29.91"   Gusts: NA
Location:  40.05°N, 84.13°W
Report Text: KDAY 311856Z 31012KT 6SM -RA BR SCT011 BKN016 OVC040 05/03 A2991 RMK AO2 SLP132 SCT011 V BKN P0003 T00500033
Loading
Personal Weather Stations






























Interactive Weather Map
Tropical Storm Tracking
New forecast layout! Learn more

10-Day Weather Forecast

Advertisements
Track Severe Weather on mobile